Zim Chicago — A8SI9 — position and weather

sailwx.info

Track history (hours):
 
Tides and Currents Weather Stations Pressure Air Temp Water Temp Dewpoint Dewpoint Depression Visibility Wind Speed Wind Dir Waves Ship Positions

Zim Chicago

Last reported at 2014-Oct-15 14:19 UTC. Time now 2014-Oct-23 01:47 UTC.
Position N 49°23' W 127°14'.

Length 334 m; draft 11.4 m.

Type: Cargo ship. MMSI: 636014223.

Date/timePositionNaut miles runAvg speedWind from/ knotsBaromVisibWave heightAir tempDewpointWater temp
2014-Oct-15 14:19N 49°23' W 127°14'1215.9
2014-Oct-15 13:34N 49°17' W 126°58'1615.9
2014-Oct-15 12:33N 49°10' W 126°36'1616.1
2014-Oct-15 11:33N 49°03' W 126°14'1515.1
2014-Oct-15 10:33N 48°55' W 125°54'1515.4
2014-Oct-15 09:33N 48°45' W 125°36'1515.3
2014-Oct-15 08:33N 48°36' W 125°18'1514.8
2014-Oct-15 07:34N 48°32' W 124°56'1515.5
2014-Oct-15 06:33N 48°28' W 124°34'1716.6
2014-Oct-15 05:33N 48°21' W 124°11'1716.7
2014-Oct-15 04:33N 48°17' W 123°46'1515.2
2014-Oct-15 03:33N 48°12' W 123°25'1414.4
2014-Oct-15 02:34N 48°13' W 123°03'1818.3
2014-Oct-15 01:33N 48°05' W 122°39'2019.9
2014-Oct-15 00:34N 47°47' W 122°26'1211.6
2014-Oct-14 23:34N 47°36' W 122°21'1 0.7
2014-Oct-14 22:31N 47°35' W 122°21'0 0.0
2014-Oct-14 21:31N 47°35' W 122°21'0 0.0
2014-Oct-14 20:31N 47°35' W 122°21'0 0.0
2014-Oct-14 19:31N 47°35' W 122°21'0 0.0
2014-Oct-14 18:28N 47°35' W 122°21'0 0.0
2014-Oct-14 17:31N 47°35' W 122°21'0 0.0
2014-Oct-14 16:31N 47°35' W 122°21'0 0.0
2014-Oct-14 15:31N 47°35' W 122°21'0 0.0
2014-Oct-14 14:31N 47°35' W 122°21'0 0.0
2014-Oct-14 13:31N 47°35' W 122°21'0 0.0
2014-Oct-14 12:28N 47°35' W 122°21'0 0.0
2014-Oct-14 11:28N 47°35' W 122°21'0 0.0
2014-Oct-14 10:31N 47°35' W 122°21'0 0.0
2014-Oct-14 09:31N 47°35' W 122°21'0 0.0
2014-Oct-14 08:31N 47°35' W 122°21'0 0.0
2014-Oct-14 07:31N 47°35' W 122°21'0 0.0
2014-Oct-14 06:31N 47°35' W 122°21'0 0.0
2014-Oct-14 05:31N 47°35' W 122°21'0 0.0
2014-Oct-14 04:31N 47°35' W 122°21'0 0.0
2014-Oct-14 03:31N 47°35' W 122°21'0 0.0
2014-Oct-14 02:31N 47°35' W 122°21'0 0.0
2014-Oct-14 01:31N 47°35' W 122°21'0 0.0
2014-Oct-14 00:28N 47°35' W 122°21'0 0.0
2014-Oct-13 23:31N 47°35' W 122°21'0 0.0
2014-Oct-13 22:31N 47°35' W 122°21'0 0.0
2014-Oct-13 21:31N 47°35' W 122°21'0 0.0
2014-Oct-13 20:31N 47°35' W 122°21'0 0.0
2014-Oct-13 19:31N 47°35' W 122°21'0 0.0
2014-Oct-13 18:31N 47°35' W 122°21'0 0.0
2014-Oct-13 17:31N 47°35' W 122°21'0 0.0
2014-Oct-13 16:31N 47°35' W 122°21'0 0.0
2014-Oct-13 15:31N 47°35' W 122°21'0 0.0
2014-Oct-13 14:31N 47°35' W 122°21'0 0.0
2014-Oct-13 13:31N 47°35' W 122°21'0 0.0
2014-Oct-13 12:31N 47°35' W 122°21'0 0.0
2014-Oct-13 11:31N 47°35' W 122°21'0 0.0
2014-Oct-13 10:31N 47°35' W 122°21'0 0.0
2014-Oct-13 09:31N 47°35' W 122°21'0 0.0
2014-Oct-13 08:31N 47°35' W 122°21'0 0.0
2014-Oct-13 07:28N 47°35' W 122°21'0 0.0
2014-Oct-13 06:31N 47°35' W 122°21'0 0.0
2014-Oct-13 05:31N 47°35' W 122°21'3 3.1
2014-Oct-13 04:32N 47°37' W 122°24'1313.0
2014-Oct-13 03:34N 47°24' W 122°22'8 7.7
2014-Oct-13 02:33N 47°17' W 122°25'2 1.5
2014-Oct-13 01:33N 47°16' W 122°23'0 0.0
2014-Oct-13 00:33N 47°16' W 122°23'0 0.0
2014-Oct-12 23:33N 47°16' W 122°23'0 0.0
2014-Oct-12 22:33N 47°16' W 122°23'0 0.0
2014-Oct-12 21:33N 47°16' W 122°23'0 0.0
2014-Oct-12 20:33N 47°16' W 122°23'0 0.0
2014-Oct-12 19:33N 47°16' W 122°23'0 0.0
2014-Oct-12 18:33N 47°16' W 122°23'0 0.0
2014-Oct-12 17:33N 47°16' W 122°23'0 0.0
2014-Oct-12 16:33N 47°16' W 122°23'0 0.0
2014-Oct-12 15:27N 47°16' W 122°23'0 0.0
2014-Oct-12 14:33N 47°16' W 122°23'0 0.0
2014-Oct-12 13:33N 47°16' W 122°23'0 0.0
2014-Oct-12 12:33N 47°16' W 122°23'0 0.0
2014-Oct-12 11:33N 47°16' W 122°23'0 0.0
2014-Oct-12 10:33N 47°16' W 122°23'0 0.0
2014-Oct-12 09:33N 47°16' W 122°23'0 0.0
2014-Oct-12 08:33N 47°16' W 122°23'0 0.0
2014-Oct-12 07:30N 47°16' W 122°23'0 0.0
2014-Oct-12 06:33N 47°16' W 122°23'0 0.0
2014-Oct-12 05:30N 47°16' W 122°23'0 0.0
2014-Oct-12 04:33N 47°16' W 122°23'0 0.0
2014-Oct-12 03:33N 47°16' W 122°23'0 0.0
2014-Oct-12 02:33N 47°16' W 122°23'0 0.0
2014-Oct-12 01:33N 47°16' W 122°23'0 0.0
2014-Oct-12 00:33N 47°16' W 122°23'0 0.0
2014-Oct-11 23:33N 47°16' W 122°23'0 0.0
2014-Oct-11 22:33N 47°16' W 122°23'0 0.0
2014-Oct-11 21:33N 47°16' W 122°23'0 0.0
2014-Oct-11 20:33N 47°16' W 122°23'0 0.0
2014-Oct-11 19:33N 47°16' W 122°23'0 0.0
2014-Oct-11 18:33N 47°16' W 122°23'0 0.0
2014-Oct-11 17:33N 47°16' W 122°23'0 0.0
2014-Oct-11 16:33N 47°16' W 122°23'0 0.0
2014-Oct-11 15:33N 47°16' W 122°23'0 0.0
2014-Oct-11 14:33N 47°16' W 122°23'0 0.0
2014-Oct-11 13:33N 47°16' W 122°23'0 0.0
2014-Oct-11 12:33N 47°16' W 122°23'0 0.0
2014-Oct-11 11:33N 47°16' W 122°23'0 0.0
2014-Oct-11 10:33N 47°16' W 122°23'0 0.0
2014-Oct-11 09:33N 47°16' W 122°23'0 0.0
2014-Oct-11 08:33N 47°16' W 122°23'0 0.0
2014-Oct-11 07:33N 47°16' W 122°23'0 0.0
2014-Oct-11 06:33N 47°16' W 122°23'0 0.0
2014-Oct-11 05:33N 47°16' W 122°23'0 0.0
2014-Oct-11 04:33N 47°16' W 122°23'0 0.0
2014-Oct-11 03:33N 47°16' W 122°23'0 0.0
2014-Oct-11 02:33N 47°16' W 122°23'0 0.1
2014-Oct-11 01:33N 47°16' W 122°24'4 4.0
2014-Oct-11 00:33N 47°18' W 122°28'1010.3
2014-Oct-10 23:33N 47°29' W 122°25'1414.3
2014-Oct-10 22:33N 47°43' W 122°27'1616.4
2014-Oct-10 21:33N 47°58' W 122°35'1918.8
2014-Oct-10 20:33N 48°12' W 122°55'1918.8
2014-Oct-10 19:33N 48°10' W 123°24'1313.2
2014-Oct-10 18:33N 48°23' W 123°23'1313.2
2014-Oct-10 17:34N 48°35' W 123°14'1716.6
2014-Oct-10 16:34N 48°49' W 123°02'1212.5
2014-Oct-10 15:34N 49°01' W 123°09'1 0.6
2014-Oct-10 14:33N 49°01' W 123°09'0 0.0
2014-Oct-10 13:22N 49°01' W 123°09'0 0.0
2014-Oct-10 12:30N 49°01' W 123°09'0 0.0
2014-Oct-10 11:33N 49°01' W 123°09'0 0.0
2014-Oct-10 10:33N 49°01' W 123°09'0 0.0
2014-Oct-10 09:33N 49°01' W 123°09'0 0.0
2014-Oct-10 08:33N 49°01' W 123°09'0 0.0
2014-Oct-10 07:33N 49°01' W 123°09'0 0.0
2014-Oct-10 06:30N 49°01' W 123°09'0 0.0
2014-Oct-10 05:33N 49°01' W 123°09'0 0.0
2014-Oct-10 04:33N 49°01' W 123°09'0 0.0
2014-Oct-10 03:30N 49°01' W 123°09'0 0.0
2014-Oct-10 02:30N 49°01' W 123°09'0 0.0
2014-Oct-10 01:34N 49°01' W 123°09'0 0.0
2014-Oct-10 00:30N 49°01' W 123°09'0 0.0
2014-Oct-09 23:30N 49°01' W 123°09'0 0.0
2014-Oct-09 22:33N 49°01' W 123°09'0 0.0
2014-Oct-09 21:33N 49°01' W 123°09'0 0.0
2014-Oct-09 20:34N 49°01' W 123°09'0 0.0
2014-Oct-09 19:33N 49°01' W 123°09'0 0.0
2014-Oct-09 18:33N 49°01' W 123°09'0 0.0
2014-Oct-09 17:33N 49°01' W 123°09'0 0.0
2014-Oct-09 16:33N 49°01' W 123°09'0 0.0
2014-Oct-09 15:33N 49°01' W 123°09'0 0.0
2014-Oct-09 14:33N 49°01' W 123°09'0 0.0
2014-Oct-09 13:33N 49°01' W 123°09'0 0.0
2014-Oct-09 12:30N 49°01' W 123°09'0 0.0
2014-Oct-09 11:33N 49°01' W 123°09'0 0.0
2014-Oct-09 10:33N 49°01' W 123°09'0 0.0
2014-Oct-09 09:33N 49°01' W 123°09'0 0.0
2014-Oct-09 08:33N 49°01' W 123°09'0 0.0
2014-Oct-09 07:33N 49°01' W 123°09'0 0.0
2014-Oct-09 06:33N 49°01' W 123°09'0 0.0
2014-Oct-09 05:34N 49°01' W 123°09'0 0.0
2014-Oct-09 04:27N 49°01' W 123°09'0 0.0
2014-Oct-09 03:30N 49°01' W 123°09'0 0.0
2014-Oct-09 02:30N 49°01' W 123°09'0 0.0
2014-Oct-09 01:33N 49°01' W 123°09'0 0.0
2014-Oct-09 00:33N 49°01' W 123°09'0 0.0
2014-Oct-08 23:33N 49°01' W 123°09'0 0.0
2014-Oct-08 22:33N 49°01' W 123°09'0 0.0
2014-Oct-08 21:15N 49°01' W 123°09'0 0.0
2014-Oct-08 20:33N 49°01' W 123°09'0 0.0
2014-Oct-08 19:33N 49°01' W 123°09'0 0.0
2014-Oct-08 18:33N 49°01' W 123°09'0 0.0
2014-Oct-08 17:33N 49°01' W 123°09'0 0.0
2014-Oct-08 16:33N 49°01' W 123°09'0 0.0
2014-Oct-08 15:30N 49°01' W 123°09'0 0.0
2014-Oct-08 14:33N 49°01' W 123°09'0 0.0
2014-Oct-08 13:33N 49°01' W 123°09'0 0.0
2014-Oct-08 12:33N 49°01' W 123°09'0 0.0
2014-Oct-08 11:33N 49°01' W 123°09'0 0.0
2014-Oct-08 10:34N 49°01' W 123°09'0 0.0
2014-Oct-08 09:33N 49°01' W 123°09'0 0.0
2014-Oct-08 08:33N 49°01' W 123°09'0 0.0
2014-Oct-08 07:33N 49°01' W 123°09'0 0.0
2014-Oct-08 06:33N 49°01' W 123°09'0 0.0
2014-Oct-08 05:33N 49°01' W 123°09'0 0.0
2014-Oct-08 04:33N 49°01' W 123°09'0 0.0
2014-Oct-08 03:33N 49°01' W 123°09'0 0.0
2014-Oct-08 02:33N 49°01' W 123°09'0 0.0
2014-Oct-08 01:33N 49°01' W 123°09'0 0.0
2014-Oct-08 00:33N 49°01' W 123°09'0 0.0
2014-Oct-07 23:33N 49°01' W 123°09'0 0.0
2014-Oct-07 22:30N 49°01' W 123°09'0 0.0
2014-Oct-07 21:33N 49°01' W 123°09'4 4.2
2014-Oct-07 20:34N 48°57' W 123°08'1414.2
2014-Oct-07 19:33N 48°43' W 123°11'1817.6
2014-Oct-07 18:33N 48°25' W 123°10'1515.1
2014-Oct-07 17:34N 48°15' W 123°27'1918.4
2014-Oct-07 16:33N 48°14' W 123°55'1919.1
2014-Oct-07 15:33N 48°22' W 124°21'1818.5
2014-Oct-07 14:33N 48°28' W 124°47'1818.4
2014-Oct-07 13:34N 48°29' W 125°15'1918.6
2014-Oct-07 12:33N 48°34' W 125°42'1818.3
2014-Oct-07 11:34N 48°39' W 126°08'1818.4
2014-Oct-07 10:33N 48°44' W 126°35'1818.4
2014-Oct-07 09:33N 48°48' W 127°02'1918.8
2014-Oct-07 08:33N 48°53' W 127°30'1818.3
2014-Oct-07 07:33N 48°58' W 127°57'1919.2
2014-Oct-07 06:33N 49°03' W 128°25'2319.7
2014-Oct-07 05:23N 49°09' W 128°59'  
Track history (hours):
 
Tides and Currents Weather Stations Pressure Air Temp Water Temp Dewpoint Dewpoint Depression Visibility Wind Speed Wind Dir Waves Ship Positions

Zim Chicago

Last reported at 2014-Oct-15 14:19 UTC. Time now 2014-Oct-23 01:47 UTC.
Position N 49°23' W 127°14'.

Length 334 m; draft 11.4 m.

Type: Cargo ship. MMSI: 636014223.

Date/timePositionNaut miles runAvg speedWind from/ knotsBaromVisibWave heightAir tempDewpointWater temp
2014-Oct-15 14:19N 49°23' W 127°14'1215.9
2014-Oct-15 13:34N 49°17' W 126°58'1615.9
2014-Oct-15 12:33N 49°10' W 126°36'1616.1
2014-Oct-15 11:33N 49°03' W 126°14'1515.1
2014-Oct-15 10:33N 48°55' W 125°54'1515.4
2014-Oct-15 09:33N 48°45' W 125°36'1515.3
2014-Oct-15 08:33N 48°36' W 125°18'1514.8
2014-Oct-15 07:34N 48°32' W 124°56'1515.5
2014-Oct-15 06:33N 48°28' W 124°34'1716.6
2014-Oct-15 05:33N 48°21' W 124°11'1716.7
2014-Oct-15 04:33N 48°17' W 123°46'1515.2
2014-Oct-15 03:33N 48°12' W 123°25'1414.4
2014-Oct-15 02:34N 48°13' W 123°03'1818.3
2014-Oct-15 01:33N 48°05' W 122°39'2019.9
2014-Oct-15 00:34N 47°47' W 122°26'1211.6
2014-Oct-14 23:34N 47°36' W 122°21'1 0.7
2014-Oct-14 22:31N 47°35' W 122°21'0 0.0
2014-Oct-14 21:31N 47°35' W 122°21'0 0.0
2014-Oct-14 20:31N 47°35' W 122°21'0 0.0
2014-Oct-14 19:31N 47°35' W 122°21'0 0.0
2014-Oct-14 18:28N 47°35' W 122°21'0 0.0
2014-Oct-14 17:31N 47°35' W 122°21'0 0.0
2014-Oct-14 16:31N 47°35' W 122°21'0 0.0
2014-Oct-14 15:31N 47°35' W 122°21'0 0.0
2014-Oct-14 14:31N 47°35' W 122°21'0 0.0
2014-Oct-14 13:31N 47°35' W 122°21'0 0.0
2014-Oct-14 12:28N 47°35' W 122°21'0 0.0
2014-Oct-14 11:28N 47°35' W 122°21'0 0.0
2014-Oct-14 10:31N 47°35' W 122°21'0 0.0
2014-Oct-14 09:31N 47°35' W 122°21'0 0.0
2014-Oct-14 08:31N 47°35' W 122°21'0 0.0
2014-Oct-14 07:31N 47°35' W 122°21'0 0.0
2014-Oct-14 06:31N 47°35' W 122°21'0 0.0
2014-Oct-14 05:31N 47°35' W 122°21'0 0.0
2014-Oct-14 04:31N 47°35' W 122°21'0 0.0
2014-Oct-14 03:31N 47°35' W 122°21'0 0.0
2014-Oct-14 02:31N 47°35' W 122°21'0 0.0
2014-Oct-14 01:31N 47°35' W 122°21'0 0.0
2014-Oct-14 00:28N 47°35' W 122°21'0 0.0
2014-Oct-13 23:31N 47°35' W 122°21'0 0.0
2014-Oct-13 22:31N 47°35' W 122°21'0 0.0
2014-Oct-13 21:31N 47°35' W 122°21'0 0.0
2014-Oct-13 20:31N 47°35' W 122°21'0 0.0
2014-Oct-13 19:31N 47°35' W 122°21'0 0.0
2014-Oct-13 18:31N 47°35' W 122°21'0 0.0
2014-Oct-13 17:31N 47°35' W 122°21'0 0.0
2014-Oct-13 16:31N 47°35' W 122°21'0 0.0
2014-Oct-13 15:31N 47°35' W 122°21'0 0.0
2014-Oct-13 14:31N 47°35' W 122°21'0 0.0
2014-Oct-13 13:31N 47°35' W 122°21'0 0.0
2014-Oct-13 12:31N 47°35' W 122°21'0 0.0
2014-Oct-13 11:31N 47°35' W 122°21'0 0.0
2014-Oct-13 10:31N 47°35' W 122°21'0 0.0
2014-Oct-13 09:31N 47°35' W 122°21'0 0.0
2014-Oct-13 08:31N 47°35' W 122°21'0 0.0
2014-Oct-13 07:28N 47°35' W 122°21'0 0.0
2014-Oct-13 06:31N 47°35' W 122°21'0 0.0
2014-Oct-13 05:31N 47°35' W 122°21'3 3.1
2014-Oct-13 04:32N 47°37' W 122°24'1313.0
2014-Oct-13 03:34N 47°24' W 122°22'8 7.7
2014-Oct-13 02:33N 47°17' W 122°25'2 1.5
2014-Oct-13 01:33N 47°16' W 122°23'0 0.0
2014-Oct-13 00:33N 47°16' W 122°23'0 0.0
2014-Oct-12 23:33N 47°16' W 122°23'0 0.0
2014-Oct-12 22:33N 47°16' W 122°23'0 0.0
2014-Oct-12 21:33N 47°16' W 122°23'0 0.0
2014-Oct-12 20:33N 47°16' W 122°23'0 0.0
2014-Oct-12 19:33N 47°16' W 122°23'0 0.0
2014-Oct-12 18:33N 47°16' W 122°23'0 0.0
2014-Oct-12 17:33N 47°16' W 122°23'0 0.0
2014-Oct-12 16:33N 47°16' W 122°23'0 0.0
2014-Oct-12 15:27N 47°16' W 122°23'0 0.0
2014-Oct-12 14:33N 47°16' W 122°23'0 0.0
2014-Oct-12 13:33N 47°16' W 122°23'0 0.0
2014-Oct-12 12:33N 47°16' W 122°23'0 0.0
2014-Oct-12 11:33N 47°16' W 122°23'0 0.0
2014-Oct-12 10:33N 47°16' W 122°23'0 0.0
2014-Oct-12 09:33N 47°16' W 122°23'0 0.0
2014-Oct-12 08:33N 47°16' W 122°23'0 0.0
2014-Oct-12 07:30N 47°16' W 122°23'0 0.0
2014-Oct-12 06:33N 47°16' W 122°23'0 0.0
2014-Oct-12 05:30N 47°16' W 122°23'0 0.0
2014-Oct-12 04:33N 47°16' W 122°23'0 0.0
2014-Oct-12 03:33N 47°16' W 122°23'0 0.0
2014-Oct-12 02:33N 47°16' W 122°23'0 0.0
2014-Oct-12 01:33N 47°16' W 122°23'0 0.0
2014-Oct-12 00:33N 47°16' W 122°23'0 0.0
2014-Oct-11 23:33N 47°16' W 122°23'0 0.0
2014-Oct-11 22:33N 47°16' W 122°23'0 0.0
2014-Oct-11 21:33N 47°16' W 122°23'0 0.0
2014-Oct-11 20:33N 47°16' W 122°23'0 0.0
2014-Oct-11 19:33N 47°16' W 122°23'0 0.0
2014-Oct-11 18:33N 47°16' W 122°23'0 0.0
2014-Oct-11 17:33N 47°16' W 122°23'0 0.0
2014-Oct-11 16:33N 47°16' W 122°23'0 0.0
2014-Oct-11 15:33N 47°16' W 122°23'0 0.0
2014-Oct-11 14:33N 47°16' W 122°23'0 0.0
2014-Oct-11 13:33N 47°16' W 122°23'0 0.0
2014-Oct-11 12:33N 47°16' W 122°23'0 0.0
2014-Oct-11 11:33N 47°16' W 122°23'0 0.0
2014-Oct-11 10:33N 47°16' W 122°23'0 0.0
2014-Oct-11 09:33N 47°16' W 122°23'0 0.0
2014-Oct-11 08:33N 47°16' W 122°23'0 0.0
2014-Oct-11 07:33N 47°16' W 122°23'0 0.0
2014-Oct-11 06:33N 47°16' W 122°23'0 0.0
2014-Oct-11 05:33N 47°16' W 122°23'0 0.0
2014-Oct-11 04:33N 47°16' W 122°23'0 0.0
2014-Oct-11 03:33N 47°16' W 122°23'0 0.0
2014-Oct-11 02:33N 47°16' W 122°23'0 0.1
2014-Oct-11 01:33N 47°16' W 122°24'4 4.0
2014-Oct-11 00:33N 47°18' W 122°28'1010.3
2014-Oct-10 23:33N 47°29' W 122°25'1414.3
2014-Oct-10 22:33N 47°43' W 122°27'1616.4
2014-Oct-10 21:33N 47°58' W 122°35'1918.8
2014-Oct-10 20:33N 48°12' W 122°55'1918.8
2014-Oct-10 19:33N 48°10' W 123°24'1313.2
2014-Oct-10 18:33N 48°23' W 123°23'1313.2
2014-Oct-10 17:34N 48°35' W 123°14'1716.6
2014-Oct-10 16:34N 48°49' W 123°02'1212.5
2014-Oct-10 15:34N 49°01' W 123°09'1 0.6
2014-Oct-10 14:33N 49°01' W 123°09'0 0.0
2014-Oct-10 13:22N 49°01' W 123°09'0 0.0
2014-Oct-10 12:30N 49°01' W 123°09'0 0.0
2014-Oct-10 11:33N 49°01' W 123°09'0 0.0
2014-Oct-10 10:33N 49°01' W 123°09'0 0.0
2014-Oct-10 09:33N 49°01' W 123°09'0 0.0
2014-Oct-10 08:33N 49°01' W 123°09'0 0.0
2014-Oct-10 07:33N 49°01' W 123°09'0 0.0
2014-Oct-10 06:30N 49°01' W 123°09'0 0.0
2014-Oct-10 05:33N 49°01' W 123°09'0 0.0
2014-Oct-10 04:33N 49°01' W 123°09'0 0.0
2014-Oct-10 03:30N 49°01' W 123°09'0 0.0
2014-Oct-10 02:30N 49°01' W 123°09'0 0.0
2014-Oct-10 01:34N 49°01' W 123°09'0 0.0
2014-Oct-10 00:30N 49°01' W 123°09'0 0.0
2014-Oct-09 23:30N 49°01' W 123°09'0 0.0
2014-Oct-09 22:33N 49°01' W 123°09'0 0.0
2014-Oct-09 21:33N 49°01' W 123°09'0 0.0
2014-Oct-09 20:34N 49°01' W 123°09'0 0.0
2014-Oct-09 19:33N 49°01' W 123°09'0 0.0
2014-Oct-09 18:33N 49°01' W 123°09'0 0.0
2014-Oct-09 17:33N 49°01' W 123°09'0 0.0
2014-Oct-09 16:33N 49°01' W 123°09'0 0.0
2014-Oct-09 15:33N 49°01' W 123°09'0 0.0
2014-Oct-09 14:33N 49°01' W 123°09'0 0.0
2014-Oct-09 13:33N 49°01' W 123°09'0 0.0
2014-Oct-09 12:30N 49°01' W 123°09'0 0.0
2014-Oct-09 11:33N 49°01' W 123°09'0 0.0
2014-Oct-09 10:33N 49°01' W 123°09'0 0.0
2014-Oct-09 09:33N 49°01' W 123°09'0 0.0
2014-Oct-09 08:33N 49°01' W 123°09'0 0.0
2014-Oct-09 07:33N 49°01' W 123°09'0 0.0
2014-Oct-09 06:33N 49°01' W 123°09'0 0.0
2014-Oct-09 05:34N 49°01' W 123°09'0 0.0
2014-Oct-09 04:27N 49°01' W 123°09'0 0.0
2014-Oct-09 03:30N 49°01' W 123°09'0 0.0
2014-Oct-09 02:30N 49°01' W 123°09'0 0.0
2014-Oct-09 01:33N 49°01' W 123°09'0 0.0
2014-Oct-09 00:33N 49°01' W 123°09'0 0.0
2014-Oct-08 23:33N 49°01' W 123°09'0 0.0
2014-Oct-08 22:33N 49°01' W 123°09'0 0.0
2014-Oct-08 21:15N 49°01' W 123°09'0 0.0
2014-Oct-08 20:33N 49°01' W 123°09'0 0.0
2014-Oct-08 19:33N 49°01' W 123°09'0 0.0
2014-Oct-08 18:33N 49°01' W 123°09'0 0.0
2014-Oct-08 17:33N 49°01' W 123°09'0 0.0
2014-Oct-08 16:33N 49°01' W 123°09'0 0.0
2014-Oct-08 15:30N 49°01' W 123°09'0 0.0
2014-Oct-08 14:33N 49°01' W 123°09'0 0.0
2014-Oct-08 13:33N 49°01' W 123°09'0 0.0
2014-Oct-08 12:33N 49°01' W 123°09'0 0.0
2014-Oct-08 11:33N 49°01' W 123°09'0 0.0
2014-Oct-08 10:34N 49°01' W 123°09'0 0.0
2014-Oct-08 09:33N 49°01' W 123°09'0 0.0
2014-Oct-08 08:33N 49°01' W 123°09'0 0.0
2014-Oct-08 07:33N 49°01' W 123°09'0 0.0
2014-Oct-08 06:33N 49°01' W 123°09'0 0.0
2014-Oct-08 05:33N 49°01' W 123°09'0 0.0
2014-Oct-08 04:33N 49°01' W 123°09'0 0.0
2014-Oct-08 03:33N 49°01' W 123°09'0 0.0
2014-Oct-08 02:33N 49°01' W 123°09'0 0.0
2014-Oct-08 01:33N 49°01' W 123°09'0 0.0
2014-Oct-08 00:33N 49°01' W 123°09'0 0.0
2014-Oct-07 23:33N 49°01' W 123°09'0 0.0
2014-Oct-07 22:30N 49°01' W 123°09'0 0.0
2014-Oct-07 21:33N 49°01' W 123°09'4 4.2
2014-Oct-07 20:34N 48°57' W 123°08'1414.2
2014-Oct-07 19:33N 48°43' W 123°11'1817.6
2014-Oct-07 18:33N 48°25' W 123°10'1515.1
2014-Oct-07 17:34N 48°15' W 123°27'1918.4
2014-Oct-07 16:33N 48°14' W 123°55'1919.1
2014-Oct-07 15:33N 48°22' W 124°21'1818.5
2014-Oct-07 14:33N 48°28' W 124°47'1818.4
2014-Oct-07 13:34N 48°29' W 125°15'1918.6
2014-Oct-07 12:33N 48°34' W 125°42'1818.3
2014-Oct-07 11:34N 48°39' W 126°08'1818.4
2014-Oct-07 10:33N 48°44' W 126°35'1818.4
2014-Oct-07 09:33N 48°48' W 127°02'1918.8
2014-Oct-07 08:33N 48°53' W 127°30'1818.3
2014-Oct-07 07:33N 48°58' W 127°57'1919.2
2014-Oct-07 06:33N 49°03' W 128°25'2319.7
2014-Oct-07 05:23N 49°09' W 128°59'  

Dump ship's entire track history